createdAt,value
2018-12-01T00:00:29.298Z,8.20
2018-12-01T00:02:57.978Z,8.48
2018-12-01T00:05:26.736Z,8.30
2018-12-01T00:07:56.079Z,9.65
2018-12-01T00:10:24.768Z,8.93
2018-12-01T00:12:53.366Z,9.53
2018-12-01T00:15:23.576Z,9.78
2018-12-01T00:17:52.424Z,9.80
2018-12-01T00:20:22.142Z,9.90
2018-12-01T00:22:50.878Z,10.48
2018-12-01T00:25:19.425Z,8.75
2018-12-01T00:27:48.336Z,7.85
2018-12-01T00:30:17.984Z,6.70
2018-12-01T00:32:48.790Z,7.50
2018-12-01T00:35:17.350Z,7.60
2018-12-01T00:37:46.004Z,8.58
2018-12-01T00:40:19.332Z,7.62
2018-12-01T00:42:48.036Z,8.35
2018-12-01T00:45:18.065Z,7.50
2018-12-01T00:47:48.935Z,7.62
2018-12-01T00:50:18.862Z,7.60
2018-12-01T00:52:48.448Z,8.05
2018-12-01T00:55:18.164Z,6.95
2018-12-01T00:57:47.321Z,7.17
2018-12-01T01:00:23.245Z,7.12
2018-12-01T01:02:53.591Z,7.80
2018-12-01T01:05:23.457Z,7.80
2018-12-01T01:07:52.668Z,7.35
2018-12-01T01:10:22.576Z,7.50
2018-12-01T01:12:51.420Z,7.85
2018-12-01T01:15:19.983Z,7.25
2018-12-01T01:17:48.730Z,7.20
2018-12-01T01:20:18.492Z,7.37
2018-12-01T01:22:47.405Z,7.97
2018-12-01T01:25:16.662Z,8.10
2018-12-01T01:27:45.958Z,7.37
2018-12-01T01:30:19.408Z,8.00
2018-12-01T01:32:48.626Z,8.33
2018-12-01T01:35:20.542Z,7.60
2018-12-01T01:37:49.159Z,7.60
2018-12-01T01:40:18.414Z,8.08
2018-12-01T01:42:46.913Z,8.08
2018-12-01T01:45:20.144Z,8.60
2018-12-01T01:47:48.985Z,7.90
2018-12-01T01:50:18.923Z,6.40
2018-12-01T01:52:47.512Z,6.87
2018-12-01T01:55:16.179Z,7.10
2018-12-01T01:57:44.798Z,7.30
2018-12-01T02:00:14.818Z,7.10
2018-12-01T02:02:46.334Z,7.28
2018-12-01T02:05:15.784Z,7.37
2018-12-01T02:07:44.485Z,7.78
2018-12-01T02:10:14.185Z,6.35
2018-12-01T02:12:42.839Z,7.60
2018-12-01T02:15:12.660Z,7.50
2018-12-01T02:17:41.497Z,7.95
2018-12-01T02:20:13.857Z,7.28
2018-12-01T02:22:42.313Z,7.95
2018-12-01T02:25:13.793Z,7.53
2018-12-01T02:27:42.372Z,7.00
2018-12-01T02:30:15.846Z,6.47
2018-12-01T02:32:44.731Z,6.90
2018-12-01T02:35:18.639Z,6.83
2018-12-01T02:37:47.214Z,7.42
2018-12-01T02:40:15.776Z,7.70
2018-12-01T02:42:44.416Z,7.40
2018-12-01T02:45:24.306Z,6.80
2018-12-01T02:47:52.726Z,7.22
2018-12-01T02:50:24.958Z,7.08
2018-12-01T02:52:55.226Z,7.90
2018-12-01T02:55:23.663Z,7.17
2018-12-01T02:57:52.486Z,7.30
2018-12-01T03:00:21.014Z,7.60
2018-12-01T03:02:49.403Z,7.50
2018-12-01T03:05:17.898Z,7.97
2018-12-01T03:07:46.469Z,7.37
2018-12-01T03:10:16.025Z,7.10
2018-12-01T03:12:44.483Z,6.50
2018-12-01T03:15:17.515Z,6.65
2018-12-01T03:17:46.304Z,6.70
2018-12-01T03:20:15.649Z,6.70
2018-12-01T03:22:44.107Z,8.18
2018-12-01T03:25:17.959Z,8.60
2018-12-01T03:27:46.979Z,9.03
2018-12-01T03:30:20.558Z,9.73
2018-12-01T03:32:51.155Z,8.70
2018-12-01T03:35:20.418Z,8.93
2018-12-01T03:37:49.733Z,9.70
2018-12-01T03:40:19.216Z,9.20
2018-12-01T03:42:47.731Z,9.35
2018-12-01T03:45:17.298Z,8.35
2018-12-01T03:47:46.035Z,9.50
2018-12-01T03:50:27.413Z,9.03
2018-12-01T03:52:57.165Z,9.13
2018-12-01T03:55:31.160Z,9.80
2018-12-01T03:58:00.126Z,9.93
2018-12-01T04:00:31.421Z,10.07
2018-12-01T04:03:00.614Z,10.80
2018-12-01T04:05:29.330Z,10.32
2018-12-01T04:07:58.010Z,10.93
2018-12-01T04:10:26.395Z,10.83
2018-12-01T04:12:55.410Z,11.55
2018-12-01T04:15:24.139Z,10.50
2018-12-01T04:17:52.585Z,9.70
2018-12-01T04:20:21.036Z,9.73
2018-12-01T04:22:49.577Z,10.20
2018-12-01T04:25:18.224Z,9.50
2018-12-01T04:27:46.657Z,10.75
2018-12-01T04:30:16.801Z,11.18
2018-12-01T04:32:45.796Z,10.95
2018-12-01T04:35:17.075Z,11.57
2018-12-01T04:37:46.848Z,10.82
2018-12-01T04:40:15.413Z,11.18
2018-12-01T04:42:44.801Z,10.20
2018-12-01T04:45:13.502Z,10.88
2018-12-01T04:47:41.912Z,11.70
2018-12-01T04:50:11.889Z,11.00
2018-12-01T04:52:40.339Z,11.43
2018-12-01T04:55:14.246Z,10.13
2018-12-01T04:57:49.299Z,10.10
2018-12-01T05:00:19.764Z,10.95
2018-12-01T05:02:48.431Z,10.70
2018-12-01T05:05:20.820Z,9.90
2018-12-01T05:07:49.565Z,11.05
2018-12-01T05:10:19.017Z,9.83
2018-12-01T05:12:47.572Z,10.53
2018-12-01T05:15:16.880Z,10.15
2018-12-01T05:17:45.706Z,10.88
2018-12-01T05:20:15.646Z,9.60
2018-12-01T05:22:44.056Z,9.85
2018-12-01T05:25:12.701Z,10.70
2018-12-01T05:27:41.092Z,10.63
2018-12-01T05:30:09.529Z,10.60
2018-12-01T05:32:38.717Z,9.90
2018-12-01T05:35:11.693Z,11.83
2018-12-01T05:37:40.263Z,11.93
2018-12-01T05:40:10.903Z,10.57
2018-12-01T05:42:39.352Z,11.07
2018-12-01T05:45:22.639Z,10.50
2018-12-01T05:47:51.805Z,11.40
2018-12-01T05:50:23.090Z,10.03
2018-12-01T05:52:53.442Z,10.63
2018-12-01T05:55:22.107Z,11.40
2018-12-01T05:57:50.707Z,10.90
2018-12-01T06:00:19.365Z,11.68
2018-12-01T06:02:48.061Z,11.30
2018-12-01T06:05:16.890Z,11.55
2018-12-01T06:07:45.978Z,11.63
2018-12-01T06:10:22.092Z,12.30
2018-12-01T06:12:52.563Z,12.03
2018-12-01T06:15:22.268Z,10.57
2018-12-01T06:17:50.765Z,11.60
2018-12-01T06:20:22.437Z,12.37
2018-12-01T06:22:50.965Z,11.68
2018-12-01T06:25:20.691Z,11.08
2018-12-01T06:27:49.233Z,12.20
2018-12-01T06:30:18.940Z,11.60
2018-12-01T06:32:48.372Z,11.40
2018-12-01T06:35:17.063Z,11.93
2018-12-01T06:37:45.530Z,11.63
2018-12-01T06:40:16.561Z,11.40
2018-12-01T06:42:51.897Z,10.15
2018-12-01T06:45:20.472Z,11.40
2018-12-01T06:47:48.908Z,12.35
2018-12-01T06:50:20.513Z,11.60
2018-12-01T06:52:49.080Z,9.93
2018-12-01T06:55:17.621Z,11.03
2018-12-01T06:57:46.826Z,10.32
2018-12-01T07:00:17.581Z,10.38
2018-12-01T07:02:46.821Z,11.50
2018-12-01T07:05:16.049Z,11.70
2018-12-01T07:07:44.413Z,11.15
2018-12-01T07:10:13.988Z,10.78
2018-12-01T07:12:44.003Z,9.75
2018-12-01T07:15:15.324Z,11.22
2018-12-01T07:17:43.734Z,11.68
2018-12-01T07:20:12.187Z,11.60
2018-12-01T07:22:40.565Z,10.90
2018-12-01T07:25:09.071Z,10.20
2018-12-01T07:27:37.559Z,11.20
2018-12-01T07:30:10.376Z,9.78
2018-12-01T07:32:38.798Z,11.20
2018-12-01T07:35:08.248Z,10.50
2018-12-01T07:37:37.004Z,10.90
2018-12-01T07:40:08.580Z,9.75
2018-12-01T07:42:37.289Z,9.70
2018-12-01T07:45:08.568Z,9.47
2018-12-01T07:47:37.058Z,9.73
2018-12-01T07:50:08.548Z,10.75
2018-12-01T07:52:36.949Z,9.03
2018-12-01T07:55:05.676Z,9.50
2018-12-01T07:57:34.145Z,10.05
2018-12-01T08:00:02.661Z,10.10
2018-12-01T08:02:31.368Z,11.35
2018-12-01T08:04:59.823Z,10.80
2018-12-01T08:07:28.287Z,10.20
2018-12-01T08:09:56.708Z,9.65
2018-12-01T08:12:25.197Z,9.20
2018-12-01T08:14:53.667Z,10.03
2018-12-01T08:17:22.187Z,9.10
2018-12-01T08:19:50.616Z,10.03
2018-12-01T08:22:19.112Z,9.25
2018-12-01T08:24:47.743Z,8.20
2018-12-01T08:27:16.289Z,7.90
2018-12-01T08:29:44.756Z,8.08
2018-12-01T08:32:13.118Z,8.48
2018-12-01T08:34:41.585Z,7.90
2018-12-01T08:37:10.010Z,7.70
2018-12-01T08:39:38.428Z,8.18
2018-12-01T08:42:06.874Z,7.73
2018-12-01T08:44:35.344Z,7.67
2018-12-01T08:47:04.004Z,7.12
2018-12-01T08:49:32.607Z,7.40
2018-12-01T08:52:01.040Z,7.00
2018-12-01T08:54:29.412Z,5.60
2018-12-01T08:56:57.812Z,6.42
2018-12-01T08:59:26.216Z,5.92
2018-12-01T09:01:54.735Z,6.67
2018-12-01T09:04:23.156Z,6.97
2018-12-01T09:06:51.568Z,6.55
2018-12-01T09:09:20.148Z,6.05
2018-12-01T09:11:48.684Z,6.40
2018-12-01T09:14:17.095Z,6.78
2018-12-01T09:16:45.726Z,5.87
2018-12-01T09:19:14.144Z,7.67
2018-12-01T09:21:42.569Z,7.25
2018-12-01T09:24:11.105Z,6.10
2018-12-01T09:26:39.742Z,6.70
2018-12-01T09:29:08.296Z,6.60
2018-12-01T09:31:36.803Z,7.28
2018-12-01T09:34:05.589Z,4.72
2018-12-01T09:36:34.050Z,5.47
2018-12-01T09:39:02.549Z,6.00
2018-12-01T09:41:31.134Z,5.00
2018-12-01T09:43:59.582Z,5.60
2018-12-01T09:46:28.180Z,5.15
2018-12-01T09:48:56.757Z,4.87
2018-12-01T09:51:25.205Z,5.90
2018-12-01T09:53:53.672Z,4.62
2018-12-01T09:56:22.086Z,5.08
2018-12-01T09:58:50.669Z,5.35
2018-12-01T10:01:19.070Z,6.28
2018-12-01T10:03:47.531Z,4.75
2018-12-01T10:06:15.944Z,4.73
2018-12-01T10:08:44.430Z,4.90
2018-12-01T10:11:12.916Z,4.75
2018-12-01T10:13:41.370Z,5.93
2018-12-01T10:16:09.847Z,5.25
2018-12-01T10:18:38.317Z,4.80
2018-12-01T10:21:06.798Z,4.15
2018-12-01T10:23:35.240Z,4.70
2018-12-01T10:26:03.787Z,4.17
2018-12-01T10:28:32.311Z,3.40
2018-12-01T10:31:00.752Z,4.40
2018-12-01T10:33:29.176Z,3.90
2018-12-01T10:35:57.604Z,4.17
2018-12-01T10:38:26.082Z,4.10
2018-12-01T10:40:54.773Z,3.50
2018-12-01T10:43:23.281Z,5.25
2018-12-01T10:45:51.835Z,7.92
2018-12-01T10:48:20.389Z,3.80
2018-12-01T10:50:48.841Z,4.08
2018-12-01T10:53:17.426Z,3.60
2018-12-01T10:55:46.041Z,3.62
2018-12-01T10:58:18.992Z,4.33
2018-12-01T11:00:54.891Z,3.55
2018-12-01T11:03:32.257Z,2.40
2018-12-01T11:06:02.156Z,4.92
2018-12-01T11:08:30.602Z,2.55
2018-12-01T11:10:59.029Z,3.70
2018-12-01T11:13:27.548Z,3.10
2018-12-01T11:15:55.980Z,3.47
2018-12-01T11:18:24.497Z,3.87
2018-12-01T11:20:52.976Z,3.58
2018-12-01T11:23:21.532Z,3.35
2018-12-01T11:25:49.944Z,2.90
2018-12-01T11:28:18.716Z,3.22
2018-12-01T11:30:47.138Z,4.20
2018-12-01T11:33:15.671Z,3.98
2018-12-01T11:35:44.368Z,4.47
2018-12-01T11:38:12.901Z,3.37
2018-12-01T11:40:41.302Z,3.60
2018-12-01T11:43:10.040Z,2.95
2018-12-01T11:45:38.586Z,6.22
2018-12-01T11:48:07.881Z,4.00
2018-12-01T11:50:36.540Z,2.72
2018-12-01T11:53:05.547Z,2.90
2018-12-01T11:55:34.053Z,3.05
2018-12-01T11:58:02.535Z,2.87
2018-12-01T12:00:31.035Z,3.70
2018-12-01T12:02:59.525Z,3.50
2018-12-01T12:05:28.086Z,3.15
2018-12-01T12:08:07.985Z,3.00
2018-12-01T12:10:36.467Z,3.77
2018-12-01T12:13:05.032Z,3.62
2018-12-01T12:15:33.636Z,3.83
2018-12-01T12:18:03.023Z,3.10
2018-12-01T12:20:31.916Z,3.90
2018-12-01T12:23:00.380Z,4.83
2018-12-01T12:25:28.877Z,3.20
2018-12-01T12:27:57.454Z,4.90
2018-12-01T12:30:26.228Z,3.17
2018-12-01T12:32:54.607Z,4.25
2018-12-01T12:35:23.006Z,3.47
2018-12-01T12:37:51.689Z,3.75
2018-12-01T12:40:24.979Z,4.30
2018-12-01T12:42:55.557Z,4.20
2018-12-01T12:45:24.021Z,3.40
2018-12-01T12:47:52.481Z,3.95
2018-12-01T12:50:21.006Z,3.87
2018-12-01T12:52:51.793Z,4.97
2018-12-01T12:55:21.360Z,3.33
2018-12-01T12:57:49.965Z,3.52
2018-12-01T13:00:19.405Z,3.45
2018-12-01T13:02:53.229Z,3.80
2018-12-01T13:05:23.377Z,4.50
2018-12-01T13:07:52.291Z,5.70
2018-12-01T13:10:22.106Z,4.85
2018-12-01T13:12:51.809Z,4.87
2018-12-01T13:15:19.226Z,5.42
2018-12-01T13:17:47.720Z,3.80
2018-12-01T13:20:18.115Z,4.15
2018-12-01T13:22:47.753Z,4.10
2018-12-01T13:25:16.862Z,4.85
2018-12-01T13:27:49.840Z,4.33
2018-12-01T13:30:21.691Z,5.10
